Página principal
METAR-TAF:

METAR-TAF

Aeroportos :

Aeroporto Internacional de Tashkent

Tashkent, Uzbequistão

latitude: 41-16N, longitude: 069-16E, altura: 489 m

Observação actual do tempo

O boletim foi feito há 40 minutos, às 18:00 UTC
Vento 8 kt de es-nordeste
Temperatura 4°C
Humidade 52%
Pressão 1022 hPa
Visibilidade: 4000 m
fumo

METAR: UTTT 231800Z 06008KT 4000 FU NSC 04/M05 Q1022 R08R/CLRD70 NOSIG

Hora: 23:40 (18:40 UTC)

Previsão

O boletim foi feito há 1 hora e 40 minutos, às 17:00 UTC
Previsão válida de 23 às 18 UTC a 24 às 18 UTC
Vento 10 kt de nordeste
Visibilidade: 7000 m
Temporariamente
de 23 às 18 UTC a 24 às 03 UTC
Visibilidade: 3000 m
fumo
Temporariamente
de 24 às 06 UTC a 24 às 18 UTC
Vento 12 kt de oes-sudoeste
Poucas nuvensa uma altura de 5000 ft, Cumulonimbus.

TAF: UTTT 231700Z 2318/2418 05010KT 7000 NSC TEMPO 2318/2403 3000 FU TEMPO 2406/2418 24012KT FEW050CB

Observações e previsões do tempo de mais de 4000 aeroportos (mensagens METAR e TAF).

As estações disponíveis são os pontos amarelos e vermelhos sobre o mapa.

Mova o rato sobre o mapa para ver o nome da estação.

Depois clique no ponto para visualizar as observações e previsões meteorológicas.

Para alterar o mapa : clique nos botões verdes com uma cruz preta para aumentar o zoom; no botão verde com uma pitada de zoom; ou nas setas verdes para mapas adjacentes.


METAR-TAF: